sensor_id;sensor_type;location;lat;lon;timestamp;pressure;altitude;pressure_sealevel;temperature;humidity
9717;BME280;4897;43.570;27.832;2024-02-15T00:01:08;99377.06;;;4.97;100.00
9717;BME280;4897;43.570;27.832;2024-02-15T00:03:36;99400.94;;;5.11;100.00
9717;BME280;4897;43.570;27.832;2024-02-15T00:06:03;99431.22;;;5.07;100.00
9717;BME280;4897;43.570;27.832;2024-02-15T00:08:30;99402.28;;;5.04;100.00
9717;BME280;4897;43.570;27.832;2024-02-15T00:10:58;99365.66;;;4.81;100.00
9717;BME280;4897;43.570;27.832;2024-02-15T00:13:25;99408.34;;;4.91;100.00
9717;BME280;4897;43.570;27.832;2024-02-15T00:15:52;99415.91;;;5.12;100.00
9717;BME280;4897;43.570;27.832;2024-02-15T00:18:19;99412.00;;;5.04;100.00
9717;BME280;4897;43.570;27.832;2024-02-15T00:20:47;99415.91;;;5.12;100.00
9717;BME280;4897;43.570;27.832;2024-02-15T00:23:14;99419.88;;;5.05;100.00
9717;BME280;4897;43.570;27.832;2024-02-15T00:25:42;99415.94;;;4.97;100.00
9717;BME280;4897;43.570;27.832;2024-02-15T00:28:10;99370.69;;;4.85;100.00
9717;BME280;4897;43.570;27.832;2024-02-15T00:30:37;99409.53;;;5.01;100.00
9717;BME280;4897;43.570;27.832;2024-02-15T00:33:04;99417.41;;;5.02;100.00
9717;BME280;4897;43.570;27.832;2024-02-15T00:35:31;99413.78;;;5.03;100.00
9717;BME280;4897;43.570;27.832;2024-02-15T00:37:59;99419.78;;;5.07;100.00
9717;BME280;4897;43.570;27.832;2024-02-15T00:40:26;99393.97;;;4.95;100.00
9717;BME280;4897;43.570;27.832;2024-02-15T00:42:53;99356.94;;;4.79;100.00
9717;BME280;4897;43.570;27.832;2024-02-15T00:45:20;99407.69;;;4.87;100.00
9717;BME280;4897;43.570;27.832;2024-02-15T00:47:47;99344.44;;;4.51;100.00
9717;BME280;4897;43.570;27.832;2024-02-15T00:50:14;99414.34;;;4.94;100.00
9717;BME280;4897;43.570;27.832;2024-02-15T00:52:41;99429.28;;;4.95;100.00
9717;BME280;4897;43.570;27.832;2024-02-15T00:55:09;99400.16;;;4.95;100.00
9717;BME280;4897;43.570;27.832;2024-02-15T00:57:39;99380.88;;;4.77;100.00
9717;BME280;4897;43.570;27.832;2024-02-15T01:00:07;99400.00;;;4.82;100.00
9717;BME280;4897;43.570;27.832;2024-02-15T01:02:35;99386.19;;;4.77;100.00
9717;BME280;4897;43.570;27.832;2024-02-15T01:05:02;99376.41;;;4.78;100.00
9717;BME280;4897;43.570;27.832;2024-02-15T01:07:29;99373.59;;;4.81;100.00
9717;BME280;4897;43.570;27.832;2024-02-15T01:09:56;99376.06;;;4.84;100.00
9717;BME280;4897;43.570;27.832;2024-02-15T01:12:24;99371.69;;;4.69;100.00
9717;BME280;4897;43.570;27.832;2024-02-15T01:14:51;99354.50;;;4.60;100.00
9717;BME280;4897;43.570;27.832;2024-02-15T01:17:18;99361.66;;;4.74;100.00
9717;BME280;4897;43.570;27.832;2024-02-15T01:19:45;99369.34;;;4.78;100.00
9717;BME280;4897;43.570;27.832;2024-02-15T01:22:12;99379.22;;;4.91;100.00
9717;BME280;4897;43.570;27.832;2024-02-15T01:24:39;99368.22;;;4.82;100.00
9717;BME280;4897;43.570;27.832;2024-02-15T01:27:06;99337.59;;;4.63;100.00
9717;BME280;4897;43.570;27.832;2024-02-15T01:29:35;99324.78;;;4.55;100.00
9717;BME280;4897;43.570;27.832;2024-02-15T01:32:03;99360.47;;;4.79;100.00
9717;BME280;4897;43.570;27.832;2024-02-15T01:34:30;99350.50;;;4.69;100.00
9717;BME280;4897;43.570;27.832;2024-02-15T01:36:57;99312.63;;;4.37;100.00
9717;BME280;4897;43.570;27.832;2024-02-15T01:39:24;99368.25;;;4.67;100.00
9717;BME280;4897;43.570;27.832;2024-02-15T01:41:51;99320.81;;;4.48;100.00
9717;BME280;4897;43.570;27.832;2024-02-15T01:44:21;99338.06;;;4.69;100.00
9717;BME280;4897;43.570;27.832;2024-02-15T01:46:51;99352.78;;;4.75;100.00
9717;BME280;4897;43.570;27.832;2024-02-15T01:49:19;99380.69;;;4.80;100.00
9717;BME280;4897;43.570;27.832;2024-02-15T01:51:49;99351.75;;;4.77;100.00
9717;BME280;4897;43.570;27.832;2024-02-15T01:54:18;99312.88;;;4.48;100.00
9717;BME280;4897;43.570;27.832;2024-02-15T01:56:46;99353.63;;;4.75;100.00
9717;BME280;4897;43.570;27.832;2024-02-15T01:59:15;99366.44;;;4.83;100.00
9717;BME280;4897;43.570;27.832;2024-02-15T02:01:45;99363.78;;;4.83;100.00
9717;BME280;4897;43.570;27.832;2024-02-15T02:04:13;99363.94;;;4.80;100.00
9717;BME280;4897;43.570;27.832;2024-02-15T02:06:40;99341.00;;;4.65;100.00
9717;BME280;4897;43.570;27.832;2024-02-15T02:09:10;99359.19;;;4.71;100.00
9717;BME280;4897;43.570;27.832;2024-02-15T02:11:39;99325.03;;;4.51;100.00
9717;BME280;4897;43.570;27.832;2024-02-15T02:14:06;99301.16;;;4.52;100.00
9717;BME280;4897;43.570;27.832;2024-02-15T02:16:34;99366.06;;;4.89;100.00
9717;BME280;4897;43.570;27.832;2024-02-15T02:19:01;99348.59;;;4.71;100.00
9717;BME280;4897;43.570;27.832;2024-02-15T02:21:35;99373.72;;;4.79;100.00
9717;BME280;4897;43.570;27.832;2024-02-15T02:24:04;99374.38;;;4.83;100.00
9717;BME280;4897;43.570;27.832;2024-02-15T02:26:38;99371.63;;;4.84;100.00
9717;BME280;4897;43.570;27.832;2024-02-15T02:29:05;99368.19;;;4.98;100.00
9717;BME280;4897;43.570;27.832;2024-02-15T02:31:33;99373.09;;;4.90;100.00
9717;BME280;4897;43.570;27.832;2024-02-15T02:34:01;99376.56;;;4.91;100.00
9717;BME280;4897;43.570;27.832;2024-02-15T02:36:28;99353.63;;;4.75;100.00
9717;BME280;4897;43.570;27.832;2024-02-15T02:38:56;99334.03;;;4.78;100.00
9717;BME280;4897;43.570;27.832;2024-02-15T02:41:26;99279.00;;;4.53;100.00
9717;BME280;4897;43.570;27.832;2024-02-15T02:43:55;99365.94;;;5.06;100.00
9717;BME280;4897;43.570;27.832;2024-02-15T02:46:22;99378.59;;;5.01;100.00
9717;BME280;4897;43.570;27.832;2024-02-15T02:48:49;99372.72;;;4.96;100.00
9717;BME280;4897;43.570;27.832;2024-02-15T02:51:17;99375.72;;;4.90;100.00
9717;BME280;4897;43.570;27.832;2024-02-15T02:53:44;99369.47;;;4.91;100.00
9717;BME280;4897;43.570;27.832;2024-02-15T02:56:10;99371.97;;;4.94;100.00
9717;BME280;4897;43.570;27.832;2024-02-15T02:58:38;99296.06;;;4.34;100.00
9717;BME280;4897;43.570;27.832;2024-02-15T03:01:09;99374.00;;;4.89;100.00
9717;BME280;4897;43.570;27.832;2024-02-15T03:03:36;99377.16;;;4.96;100.00
9717;BME280;4897;43.570;27.832;2024-02-15T03:06:04;99389.19;;;5.01;100.00
9717;BME280;4897;43.570;27.832;2024-02-15T03:08:31;99377.06;;;4.97;100.00
9717;BME280;4897;43.570;27.832;2024-02-15T03:10:59;99382.84;;;5.04;100.00
9717;BME280;4897;43.570;27.832;2024-02-15T03:13:26;99376.13;;;4.98;100.00
9717;BME280;4897;43.570;27.832;2024-02-15T03:15:53;99383.31;;;4.96;100.00
9717;BME280;4897;43.570;27.832;2024-02-15T03:18:21;99401.50;;;5.02;100.00
9717;BME280;4897;43.570;27.832;2024-02-15T03:20:49;99380.66;;;4.96;100.00
9717;BME280;4897;43.570;27.832;2024-02-15T03:23:16;99390.91;;;5.02;100.00
9717;BME280;4897;43.570;27.832;2024-02-15T03:25:43;99381.59;;;4.95;100.00
9717;BME280;4897;43.570;27.832;2024-02-15T03:28:10;99389.44;;;4.97;100.00
9717;BME280;4897;43.570;27.832;2024-02-15T03:30:37;99354.72;;;4.87;100.00
9717;BME280;4897;43.570;27.832;2024-02-15T03:33:04;99396.00;;;5.05;100.00
9717;BME280;4897;43.570;27.832;2024-02-15T03:35:32;99407.22;;;5.10;100.00
9717;BME280;4897;43.570;27.832;2024-02-15T03:38:00;99399.34;;;5.09;100.00
9717;BME280;4897;43.570;27.832;2024-02-15T03:40:27;99399.06;;;5.13;100.00
9717;BME280;4897;43.570;27.832;2024-02-15T03:42:56;99380.66;;;4.96;100.00
9717;BME280;4897;43.570;27.832;2024-02-15T03:45:22;99399.53;;;5.06;100.00
9717;BME280;4897;43.570;27.832;2024-02-15T03:47:51;99354.25;;;4.95;100.00
9717;BME280;4897;43.570;27.832;2024-02-15T03:50:18;99399.84;;;5.15;100.00
9717;BME280;4897;43.570;27.832;2024-02-15T03:52:48;99384.47;;;5.06;100.00
9717;BME280;4897;43.570;27.832;2024-02-15T03:55:15;99390.91;;;5.02;100.00
9717;BME280;4897;43.570;27.832;2024-02-15T03:57:42;99354.66;;;4.73;100.00
9717;BME280;4897;43.570;27.832;2024-02-15T04:00:12;99413.88;;;5.17;100.00
9717;BME280;4897;43.570;27.832;2024-02-15T04:02:46;99416.31;;;5.20;100.00
9717;BME280;4897;43.570;27.832;2024-02-15T04:05:13;99387.44;;;5.16;100.00
9717;BME280;4897;43.570;27.832;2024-02-15T04:07:40;99398.41;;;5.10;100.00
9717;BME280;4897;43.570;27.832;2024-02-15T04:10:09;99413.09;;;5.15;100.00
9717;BME280;4897;43.570;27.832;2024-02-15T04:12:36;99393.47;;;5.04;100.00
9717;BME280;4897;43.570;27.832;2024-02-15T04:15:03;99412.19;;;5.30;100.00
9717;BME280;4897;43.570;27.832;2024-02-15T04:17:33;99419.97;;;5.33;100.00
9717;BME280;4897;43.570;27.832;2024-02-15T04:20:00;99366.47;;;4.97;100.00
9717;BME280;4897;43.570;27.832;2024-02-15T04:22:32;99404.78;;;5.21;100.00
9717;BME280;4897;43.570;27.832;2024-02-15T04:25:02;99402.00;;;5.09;100.00
9717;BME280;4897;43.570;27.832;2024-02-15T04:27:30;99387.28;;;5.03;100.00
9717;BME280;4897;43.570;27.832;2024-02-15T04:29:57;99407.81;;;5.15;100.00
9717;BME280;4897;43.570;27.832;2024-02-15T04:32:24;99404.03;;;5.19;100.00
9717;BME280;4897;43.570;27.832;2024-02-15T04:34:51;99394.84;;;4.95;100.00
9717;BME280;4897;43.570;27.832;2024-02-15T04:37:18;99405.91;;;5.17;100.00
9717;BME280;4897;43.570;27.832;2024-02-15T04:39:46;99415.28;;;5.23;100.00
9717;BME280;4897;43.570;27.832;2024-02-15T04:42:13;99397.97;;;5.17;100.00
9717;BME280;4897;43.570;27.832;2024-02-15T04:44:42;99422.75;;;5.16;100.00
9717;BME280;4897;43.570;27.832;2024-02-15T04:47:09;99409.09;;;5.08;100.00
9717;BME280;4897;43.570;27.832;2024-02-15T04:49:36;99408.50;;;5.03;100.00
9717;BME280;4897;43.570;27.832;2024-02-15T04:52:04;99420.25;;;5.13;100.00
9717;BME280;4897;43.570;27.832;2024-02-15T04:54:32;99426.53;;;5.12;100.00
9717;BME280;4897;43.570;27.832;2024-02-15T04:56:59;99441.13;;;5.19;100.00
9717;BME280;4897;43.570;27.832;2024-02-15T04:59:26;99427.28;;;5.14;100.00
9717;BME280;4897;43.570;27.832;2024-02-15T05:01:58;99416.84;;;5.11;100.00
9717;BME280;4897;43.570;27.832;2024-02-15T05:04:25;99414.66;;;5.04;100.00
9717;BME280;4897;43.570;27.832;2024-02-15T05:06:52;99423.16;;;5.24;100.00
9717;BME280;4897;43.570;27.832;2024-02-15T05:09:19;99426.28;;;5.31;100.00
9717;BME280;4897;43.570;27.832;2024-02-15T05:11:48;99416.59;;;5.16;100.00
9717;BME280;4897;43.570;27.832;2024-02-15T05:14:15;99429.34;;;5.09;100.00
9717;BME280;4897;43.570;27.832;2024-02-15T05:16:45;99427.91;;;5.04;100.00
9717;BME280;4897;43.570;27.832;2024-02-15T05:19:15;99437.88;;;5.14;100.00
9717;BME280;4897;43.570;27.832;2024-02-15T05:21:42;99447.63;;;5.14;100.00
9717;BME280;4897;43.570;27.832;2024-02-15T05:24:12;99448.31;;;5.17;100.00
9717;BME280;4897;43.570;27.832;2024-02-15T05:26:40;99436.38;;;5.10;100.00
9717;BME280;4897;43.570;27.832;2024-02-15T05:29:08;99438.59;;;5.02;100.00
9717;BME280;4897;43.570;27.832;2024-02-15T05:31:36;99443.72;;;5.05;100.00
9717;BME280;4897;43.570;27.832;2024-02-15T05:34:04;99437.88;;;5.14;100.00
9717;BME280;4897;43.570;27.832;2024-02-15T05:36:34;99424.00;;;4.95;100.00
9717;BME280;4897;43.570;27.832;2024-02-15T05:39:01;99345.03;;;4.56;100.00
9717;BME280;4897;43.570;27.832;2024-02-15T05:41:30;99432.19;;;5.06;100.00
9717;BME280;4897;43.570;27.832;2024-02-15T05:43:57;99461.88;;;5.27;100.00
9717;BME280;4897;43.570;27.832;2024-02-15T05:46:25;99470.97;;;5.23;100.00
9717;BME280;4897;43.570;27.832;2024-02-15T05:48:56;99472.13;;;5.33;100.00
9717;BME280;4897;43.570;27.832;2024-02-15T05:51:23;99477.19;;;5.22;100.00
9717;BME280;4897;43.570;27.832;2024-02-15T05:53:51;99480.56;;;5.10;100.00
9717;BME280;4897;43.570;27.832;2024-02-15T05:56:26;99461.84;;;4.97;100.00
9717;BME280;4897;43.570;27.832;2024-02-15T05:58:53;99464.59;;;4.96;100.00
9717;BME280;4897;43.570;27.832;2024-02-15T06:01:20;99344.28;;;4.39;100.00
9717;BME280;4897;43.570;27.832;2024-02-15T06:03:49;99489.00;;;5.16;100.00
9717;BME280;4897;43.570;27.832;2024-02-15T06:06:20;99460.47;;;5.06;100.00
9717;BME280;4897;43.570;27.832;2024-02-15T06:08:48;99490.59;;;5.05;100.00
9717;BME280;4897;43.570;27.832;2024-02-15T06:11:20;99480.41;;;5.13;100.00
9717;BME280;4897;43.570;27.832;2024-02-15T06:13:49;99481.47;;;5.24;100.00
9717;BME280;4897;43.570;27.832;2024-02-15T06:16:17;99473.25;;;5.29;100.00
9717;BME280;4897;43.570;27.832;2024-02-15T06:18:46;99490.06;;;5.43;100.00
9717;BME280;4897;43.570;27.832;2024-02-15T06:21:15;99466.53;;;5.23;100.00
9717;BME280;4897;43.570;27.832;2024-02-15T06:23:43;99463.03;;;5.07;100.00
9717;BME280;4897;43.570;27.832;2024-02-15T06:26:10;99487.69;;;5.39;100.00
9717;BME280;4897;43.570;27.832;2024-02-15T06:28:38;99481.38;;;5.26;100.00
9717;BME280;4897;43.570;27.832;2024-02-15T06:31:23;99167.47;;;3.39;100.00
9717;BME280;4897;43.570;27.832;2024-02-15T06:34:07;99498.75;;;5.31;100.00
9717;BME280;4897;43.570;27.832;2024-02-15T06:36:53;99494.00;;;5.36;100.00
9717;BME280;4897;43.570;27.832;2024-02-15T06:39:37;99498.53;;;5.34;100.00
9717;BME280;4897;43.570;27.832;2024-02-15T06:42:12;99483.34;;;5.38;100.00
9717;BME280;4897;43.570;27.832;2024-02-15T06:44:43;99517.72;;;5.39;100.00
9717;BME280;4897;43.570;27.832;2024-02-15T06:47:10;99484.53;;;5.32;100.00
9717;BME280;4897;43.570;27.832;2024-02-15T06:49:40;99509.28;;;5.47;100.00
9717;BME280;4897;43.570;27.832;2024-02-15T06:52:10;99490.03;;;5.29;100.00
9717;BME280;4897;43.570;27.832;2024-02-15T06:54:37;99499.00;;;5.56;100.00
9717;BME280;4897;43.570;27.832;2024-02-15T06:57:06;99503.81;;;5.80;100.00
9717;BME280;4897;43.570;27.832;2024-02-15T06:59:34;99477.09;;;5.53;100.00
9717;BME280;4897;43.570;27.832;2024-02-15T07:02:04;99487.66;;;5.68;100.00
9717;BME280;4897;43.570;27.832;2024-02-15T07:04:31;99478.31;;;5.47;100.00
9717;BME280;4897;43.570;27.832;2024-02-15T07:06:58;99479.94;;;5.50;100.00
9717;BME280;4897;43.570;27.832;2024-02-15T07:09:27;99513.34;;;5.68;100.00
9717;BME280;4897;43.570;27.832;2024-02-15T07:11:56;99502.72;;;5.68;100.00
9717;BME280;4897;43.570;27.832;2024-02-15T07:14:24;99497.69;;;5.63;100.00
9717;BME280;4897;43.570;27.832;2024-02-15T07:16:53;99522.41;;;5.64;100.00
9717;BME280;4897;43.570;27.832;2024-02-15T07:19:24;99479.44;;;5.14;100.00
9717;BME280;4897;43.570;27.832;2024-02-15T07:21:52;99505.94;;;5.59;100.00
9717;BME280;4897;43.570;27.832;2024-02-15T07:24:23;99519.66;;;5.65;100.00
9717;BME280;4897;43.570;27.832;2024-02-15T07:26:52;99527.00;;;5.76;100.00
9717;BME280;4897;43.570;27.832;2024-02-15T07:29:20;99520.63;;;5.64;100.00
9717;BME280;4897;43.570;27.832;2024-02-15T07:31:48;99508.91;;;5.68;100.00
9717;BME280;4897;43.570;27.832;2024-02-15T07:34:15;99504.88;;;5.91;100.00
9717;BME280;4897;43.570;27.832;2024-02-15T07:36:44;99504.94;;;6.19;100.00
9717;BME280;4897;43.570;27.832;2024-02-15T07:39:12;99430.94;;;5.71;100.00
9717;BME280;4897;43.570;27.832;2024-02-15T07:41:48;99480.34;;;5.88;100.00
9717;BME280;4897;43.570;27.832;2024-02-15T07:44:15;99481.88;;;5.92;100.00
9717;BME280;4897;43.570;27.832;2024-02-15T07:46:43;99479.97;;;6.08;100.00
9717;BME280;4897;43.570;27.832;2024-02-15T07:49:10;99370.84;;;5.42;100.00
9717;BME280;4897;43.570;27.832;2024-02-15T07:51:39;99478.72;;;5.85;100.00
9717;BME280;4897;43.570;27.832;2024-02-15T07:54:08;99513.72;;;6.06;100.00
9717;BME280;4897;43.570;27.832;2024-02-15T07:56:36;99510.47;;;6.01;100.00
9717;BME280;4897;43.570;27.832;2024-02-15T07:59:04;99484.16;;;5.98;100.00
9717;BME280;4897;43.570;27.832;2024-02-15T08:01:31;99485.06;;;5.97;100.00
9717;BME280;4897;43.570;27.832;2024-02-15T08:03:59;99486.63;;;6.15;100.00
9717;BME280;4897;43.570;27.832;2024-02-15T08:06:26;99509.94;;;6.52;100.00
9717;BME280;4897;43.570;27.832;2024-02-15T08:08:54;99485.56;;;6.45;100.00
9717;BME280;4897;43.570;27.832;2024-02-15T08:11:22;99504.41;;;6.69;100.00
9717;BME280;4897;43.570;27.832;2024-02-15T08:13:52;99486.88;;;6.93;100.00
9717;BME280;4897;43.570;27.832;2024-02-15T08:16:22;99510.47;;;6.85;100.00
9717;BME280;4897;43.570;27.832;2024-02-15T08:18:50;99499.09;;;6.69;100.00
9717;BME280;4897;43.570;27.832;2024-02-15T08:21:18;99510.63;;;6.82;100.00
9717;BME280;4897;43.570;27.832;2024-02-15T08:23:51;99495.38;;;6.86;100.00
9717;BME280;4897;43.570;27.832;2024-02-15T08:26:18;99504.00;;;6.89;100.00
9717;BME280;4897;43.570;27.832;2024-02-15T08:28:46;99501.25;;;7.17;100.00
9717;BME280;4897;43.570;27.832;2024-02-15T08:31:13;99482.66;;;7.03;100.00
9717;BME280;4897;43.570;27.832;2024-02-15T08:33:43;99475.25;;;6.82;100.00
9717;BME280;4897;43.570;27.832;2024-02-15T08:36:16;99494.75;;;6.95;100.00
9717;BME280;4897;43.570;27.832;2024-02-15T08:38:44;99504.97;;;6.88;100.00
9717;BME280;4897;43.570;27.832;2024-02-15T08:41:12;99500.00;;;6.82;100.00
9717;BME280;4897;43.570;27.832;2024-02-15T08:43:39;99470.47;;;7.13;100.00
9717;BME280;4897;43.570;27.832;2024-02-15T08:46:08;99483.00;;;7.25;100.00
9717;BME280;4897;43.570;27.832;2024-02-15T08:48:35;99483.75;;;7.28;100.00
9717;BME280;4897;43.570;27.832;2024-02-15T08:51:04;99466.97;;;7.52;100.00
9717;BME280;4897;43.570;27.832;2024-02-15T08:53:34;99496.00;;;8.20;100.00
9717;BME280;4897;43.570;27.832;2024-02-15T08:56:02;99456.50;;;7.88;100.00
9717;BME280;4897;43.570;27.832;2024-02-15T08:58:29;99495.03;;;8.21;100.00
9717;BME280;4897;43.570;27.832;2024-02-15T09:00:56;99493.00;;;7.99;100.00
9717;BME280;4897;43.570;27.832;2024-02-15T09:03:25;99499.31;;;7.98;100.00
9717;BME280;4897;43.570;27.832;2024-02-15T09:05:52;99489.69;;;7.83;100.00
9717;BME280;4897;43.570;27.832;2024-02-15T09:08:21;99513.16;;;8.03;100.00
9717;BME280;4897;43.570;27.832;2024-02-15T09:10:49;99512.59;;;7.85;100.00
9717;BME280;4897;43.570;27.832;2024-02-15T09:13:18;99518.06;;;7.96;100.00
9717;BME280;4897;43.570;27.832;2024-02-15T09:15:44;99514.69;;;8.32;100.00
9717;BME280;4897;43.570;27.832;2024-02-15T09:18:15;99511.16;;;8.57;100.00
9717;BME280;4897;43.570;27.832;2024-02-15T09:20:46;99503.38;;;8.29;100.00
9717;BME280;4897;43.570;27.832;2024-02-15T09:23:14;99509.84;;;8.25;100.00
9717;BME280;4897;43.570;27.832;2024-02-15T09:25:41;99478.13;;;7.96;100.00
9717;BME280;4897;43.570;27.832;2024-02-15T09:28:09;99496.97;;;8.06;100.00
9717;BME280;4897;43.570;27.832;2024-02-15T09:30:36;99517.53;;;8.04;100.00
9717;BME280;4897;43.570;27.832;2024-02-15T09:33:04;99507.84;;;8.03;100.00
9717;BME280;4897;43.570;27.832;2024-02-15T09:35:31;99528.28;;;8.15;100.00
9717;BME280;4897;43.570;27.832;2024-02-15T09:38:00;99504.44;;;8.39;100.00
9717;BME280;4897;43.570;27.832;2024-02-15T09:40:27;99497.69;;;8.58;100.00
9717;BME280;4897;43.570;27.832;2024-02-15T09:42:54;99514.84;;;8.79;100.00
9717;BME280;4897;43.570;27.832;2024-02-15T09:45:21;99478.88;;;8.36;100.00
9717;BME280;4897;43.570;27.832;2024-02-15T09:47:50;99494.72;;;9.23;100.00
9717;BME280;4897;43.570;27.832;2024-02-15T09:50:18;99503.66;;;9.69;100.00
9717;BME280;4897;43.570;27.832;2024-02-15T09:52:49;99483.97;;;9.59;100.00
9717;BME280;4897;43.570;27.832;2024-02-15T09:55:18;99453.91;;;9.33;100.00
9717;BME280;4897;43.570;27.832;2024-02-15T09:57:50;99503.56;;;9.00;100.00
9717;BME280;4897;43.570;27.832;2024-02-15T10:00:17;99481.00;;;8.93;100.00
9717;BME280;4897;43.570;27.832;2024-02-15T10:02:47;99440.47;;;8.88;100.00
9717;BME280;4897;43.570;27.832;2024-02-15T10:05:15;99494.16;;;8.70;100.00
9717;BME280;4897;43.570;27.832;2024-02-15T10:07:43;99477.19;;;8.84;100.00
9717;BME280;4897;43.570;27.832;2024-02-15T10:10:15;99465.28;;;9.01;100.00
9717;BME280;4897;43.570;27.832;2024-02-15T10:12:44;99474.38;;;9.33;100.00
9717;BME280;4897;43.570;27.832;2024-02-15T10:15:27;99506.56;;;9.66;100.00
9717;BME280;4897;43.570;27.832;2024-02-15T10:17:54;99466.75;;;9.63;100.00
9717;BME280;4897;43.570;27.832;2024-02-15T10:20:21;99462.44;;;9.49;100.00
9717;BME280;4897;43.570;27.832;2024-02-15T10:22:51;99445.97;;;8.97;100.00
9717;BME280;4897;43.570;27.832;2024-02-15T10:25:20;99453.75;;;9.24;100.00
9717;BME280;4897;43.570;27.832;2024-02-15T10:27:49;99434.13;;;9.71;100.00
9717;BME280;4897;43.570;27.832;2024-02-15T10:30:17;99447.97;;;9.30;100.00
9717;BME280;4897;43.570;27.832;2024-02-15T10:32:45;99457.09;;;9.15;100.00
9717;BME280;4897;43.570;27.832;2024-02-15T10:35:19;99458.69;;;8.94;100.00
9717;BME280;4897;43.570;27.832;2024-02-15T10:37:47;99464.31;;;9.25;100.00
9717;BME280;4897;43.570;27.832;2024-02-15T10:40:20;99426.31;;;9.56;100.00
9717;BME280;4897;43.570;27.832;2024-02-15T10:42:51;99424.13;;;10.18;100.00
9717;BME280;4897;43.570;27.832;2024-02-15T10:45:18;99430.13;;;11.30;100.00
9717;BME280;4897;43.570;27.832;2024-02-15T10:47:46;99416.97;;;12.20;100.00
9717;BME280;4897;43.570;27.832;2024-02-15T10:50:14;99437.59;;;11.99;100.00
9717;BME280;4897;43.570;27.832;2024-02-15T10:52:50;99436.25;;;11.93;100.00
9717;BME280;4897;43.570;27.832;2024-02-15T10:55:30;99427.63;;;12.80;100.00
9717;BME280;4897;43.570;27.832;2024-02-15T10:58:06;99361.94;;;12.26;100.00
9717;BME280;4897;43.570;27.832;2024-02-15T11:00:33;99415.50;;;12.46;100.00
9717;BME280;4897;43.570;27.832;2024-02-15T11:03:03;99408.31;;;12.47;100.00
9717;BME280;4897;43.570;27.832;2024-02-15T11:05:32;99414.41;;;12.19;100.00
9717;BME280;4897;43.570;27.832;2024-02-15T11:08:02;99402.41;;;12.53;100.00
9717;BME280;4897;43.570;27.832;2024-02-15T11:10:30;99409.28;;;13.91;100.00
9717;BME280;4897;43.570;27.832;2024-02-15T11:12:58;99409.75;;;13.19;100.00
9717;BME280;4897;43.570;27.832;2024-02-15T11:15:44;99406.13;;;12.71;100.00
9717;BME280;4897;43.570;27.832;2024-02-15T11:18:42;99414.41;;;13.27;100.00
9717;BME280;4897;43.570;27.832;2024-02-15T11:21:15;99400.22;;;12.37;100.00
9717;BME280;4897;43.570;27.832;2024-02-15T11:23:42;99406.84;;;12.33;100.00
9717;BME280;4897;43.570;27.832;2024-02-15T11:26:42;99385.38;;;12.33;100.00
9717;BME280;4897;43.570;27.832;2024-02-15T11:29:07;99411.94;;;11.12;100.00
9717;BME280;4897;43.570;27.832;2024-02-15T11:31:54;99390.44;;;11.35;100.00
9717;BME280;4897;43.570;27.832;2024-02-15T11:34:43;99399.78;;;11.40;100.00
9717;BME280;4897;43.570;27.832;2024-02-15T11:40:12;99309.91;;;11.98;100.00
9717;BME280;4897;43.570;27.832;2024-02-15T11:42:39;99353.84;;;12.56;100.00
9717;BME280;4897;43.570;27.832;2024-02-15T11:45:07;99363.03;;;12.14;100.00
9717;BME280;4897;43.570;27.832;2024-02-15T11:47:39;99351.59;;;12.61;100.00
9717;BME280;4897;43.570;27.832;2024-02-15T11:50:09;99358.19;;;13.35;100.00
9717;BME280;4897;43.570;27.832;2024-02-15T11:52:40;99351.91;;;12.77;100.00
9717;BME280;4897;43.570;27.832;2024-02-15T11:55:08;99345.31;;;12.32;100.00
9717;BME280;4897;43.570;27.832;2024-02-15T11:57:38;99321.19;;;12.32;100.00
9717;BME280;4897;43.570;27.832;2024-02-15T12:00:23;99329.88;;;13.02;100.00
9717;BME280;4897;43.570;27.832;2024-02-15T12:03:09;99373.75;;;13.22;100.00
9717;BME280;4897;43.570;27.832;2024-02-15T12:05:54;99352.94;;;14.45;100.00
9717;BME280;4897;43.570;27.832;2024-02-15T12:08:38;99373.84;;;13.58;100.00
9717;BME280;4897;43.570;27.832;2024-02-15T12:11:22;99371.94;;;12.73;100.00
9717;BME280;4897;43.570;27.832;2024-02-15T12:14:11;99371.06;;;11.83;100.00
9717;BME280;4897;43.570;27.832;2024-02-15T12:17:02;99377.94;;;11.76;100.00
9717;BME280;4897;43.570;27.832;2024-02-15T12:19:48;99357.31;;;13.25;100.00
9717;BME280;4897;43.570;27.832;2024-02-15T12:22:17;99374.56;;;13.51;100.00
9717;BME280;4897;43.570;27.832;2024-02-15T12:24:53;99368.88;;;13.63;100.00
9717;BME280;4897;43.570;27.832;2024-02-15T12:27:20;99356.19;;;12.30;100.00
9717;BME280;4897;43.570;27.832;2024-02-15T12:29:53;99383.00;;;12.99;100.00
9717;BME280;4897;43.570;27.832;2024-02-15T12:32:21;99385.75;;;12.19;100.00
9717;BME280;4897;43.570;27.832;2024-02-15T12:34:50;99374.31;;;11.87;100.00
9717;BME280;4897;43.570;27.832;2024-02-15T12:37:18;99386.16;;;12.15;100.00
9717;BME280;4897;43.570;27.832;2024-02-15T12:39:47;99392.56;;;11.93;100.00
9717;BME280;4897;43.570;27.832;2024-02-15T12:42:15;99405.66;;;11.34;100.00
9717;BME280;4897;43.570;27.832;2024-02-15T12:44:44;99396.81;;;11.22;100.00
9717;BME280;4897;43.570;27.832;2024-02-15T12:47:21;99402.34;;;11.10;100.00
9717;BME280;4897;43.570;27.832;2024-02-15T12:49:51;99406.34;;;11.15;100.00
9717;BME280;4897;43.570;27.832;2024-02-15T12:52:38;99399.25;;;10.83;100.00
9717;BME280;4897;43.570;27.832;2024-02-15T12:55:13;99391.78;;;10.66;100.00
9717;BME280;4897;43.570;27.832;2024-02-15T12:57:41;99392.03;;;10.63;100.00
9717;BME280;4897;43.570;27.832;2024-02-15T13:00:11;99392.53;;;10.57;100.00
9717;BME280;4897;43.570;27.832;2024-02-15T13:02:39;99385.16;;;10.27;100.00
9717;BME280;4897;43.570;27.832;2024-02-15T13:05:07;99402.53;;;10.21;100.00
9717;BME280;4897;43.570;27.832;2024-02-15T13:07:36;99379.94;;;10.25;100.00
9717;BME280;4897;43.570;27.832;2024-02-15T13:10:04;99377.63;;;10.32;100.00
9717;BME280;4897;43.570;27.832;2024-02-15T13:12:33;99374.81;;;10.33;100.00
9717;BME280;4897;43.570;27.832;2024-02-15T13:15:02;99392.91;;;10.41;100.00
9717;BME280;4897;43.570;27.832;2024-02-15T13:17:30;99387.19;;;10.57;100.00
9717;BME280;4897;43.570;27.832;2024-02-15T13:19:59;99371.13;;;10.57;100.00
9717;BME280;4897;43.570;27.832;2024-02-15T13:22:32;99355.69;;;10.60;100.00
9717;BME280;4897;43.570;27.832;2024-02-15T13:25:00;99385.38;;;10.35;100.00